Turkey, North Carolina
Current Conditions -  °F | °C
As of 12:35 AM on Wednesday 26 Nov 2014 (Local Time) from KCTZ Reporting Station
Drizzle Drizzle  
Wind Chill: 12°   Ceiling: 400
Heat Index: 12°   Visibility: 3mi
Dew Point: 12°   Wind: 3mph
Humidity: 100%   Direction: 50°NE
Pressure: 29.95"   Gusts: NA
Location:  34.99°N, 78.18°W
Report Text: KCTZ 260535Z AUTO 05003KT 3SM +DZ OVC004 12/12 A2995 RMK AO2 P0002 T01220122
Loading
Personal Weather Stations






























Interactive Weather Map New forecast layout! Learn more

10-Day Weather Forecast

Advertisements
Track Severe Weather on mobile